RKPK/PUS METAR and TAF weather

Enter ICAO airport designator
Station Type Date Time Source
RKPK METAR 2019/02/16 07:00 UTC NOAA

RKPK 160700Z 34012KT CAVOK 06/M09 Q1019


Station Type Date Time Source
RKPK Decoded METAR 2019/02/16 07:00 UTC NOAA

Pusan / Kimhae International Airport, Korea, South (RKPK) 35-11N 128-56E 6M
Feb 16, 2019 - 02:00 AM EST / 2019.02.16 0700 UTC
Wind: from the NNW (340 degrees) at 14 MPH (12 KT):0
Visibility: greater than 7 mile(s):0
Temperature: 42 F (6 C)
Dew Point: 15 F (-9 C)
Relative Humidity: 33%
Pressure (altimeter): 30.09 in. Hg (1019 hPa)
ob: RKPK 160700Z 34012KT CAVOK 06/M09 Q1019
cycle: 7

Station Type Date Time Source
RKPK TAF 2019/02/16 06:13 UTC NOAA

TAF RKPK 160500Z 1606/1712 33012KT 9999 SCT030 SCT200 TNM02/1621Z TX11/1706Z
BECMG 1608/1609 33006KT


Example: see airport list